Time;durP1;ratioP1;P1;durP2;ratioP2;P2;SDS_P1;SDS_P2;PMS_P1;PMS_P2;Temp;Humidity;BMP_temperature;BMP_pressure;BME280_temperature;BME280_humidity;BME280_pressure;Samples;Min_cycle;Max_cycle;Signal;HPM_P1;HPM_P2
2022/03/23 00:01:58;;;;;;;12.77;7.97;;;;;;;2.76;100.00;96463.22;5076247;28;20184;-56
2022/03/23 00:04:24;;;;;;;11.40;7.17;;;;;;;2.71;100.00;96460.72;5077025;28;20650;-56
2022/03/23 00:06:49;;;;;;;12.90;6.73;;;;;;;2.66;100.00;96463.59;5076878;28;20202;-54
2022/03/23 00:09:14;;;;;;;11.17;7.07;;;;;;;2.64;100.00;96460.44;5076449;28;20546;-56
2022/03/23 00:11:41;;;;;;;8.60;6.33;;;;;;;2.62;100.00;96462.66;5076799;28;20184;-60
2022/03/23 00:14:09;;;;;;;12.03;7.07;;;;;;;2.53;100.00;96474.63;5076726;28;20180;-60
2022/03/23 00:16:36;;;;;;;13.87;7.23;;;;;;;2.48;100.00;96464.03;5076107;28;20203;-60
2022/03/23 00:19:02;;;;;;;11.37;7.03;;;;;;;2.45;100.00;96468.13;5075528;28;20211;-60
2022/03/23 00:21:28;;;;;;;11.20;6.93;;;;;;;2.35;100.00;96457.75;5076132;28;20218;-59
2022/03/23 00:23:53;;;;;;;9.87;6.77;;;;;;;2.36;100.00;96456.63;5076344;28;20599;-59
2022/03/23 00:26:18;;;;;;;9.47;6.73;;;;;;;2.34;100.00;96453.44;5076093;28;20192;-60
2022/03/23 00:28:45;;;;;;;10.40;6.67;;;;;;;2.35;100.00;96457.75;5076168;28;20208;-60
2022/03/23 00:31:10;;;;;;;11.93;6.77;;;;;;;2.33;100.00;96469.97;5076627;28;20185;-70
2022/03/23 00:33:36;;;;;;;11.20;6.80;;;;;;;2.31;100.00;96461.41;5076596;28;20184;-59
2022/03/23 00:36:02;;;;;;;11.13;7.03;;;;;;;2.30;100.00;96460.59;5076085;28;20184;-59
2022/03/23 00:38:28;;;;;;;10.17;6.97;;;;;;;2.25;100.00;96451.91;5076286;28;20253;-59
2022/03/23 00:40:53;;;;;;;10.83;7.13;;;;;;;2.24;100.00;96456.53;5076103;28;20196;-60
2022/03/23 00:43:18;;;;;;;9.93;6.87;;;;;;;2.18;100.00;96455.13;5076120;28;20193;-59
2022/03/23 00:45:44;;;;;;;10.30;6.17;;;;;;;2.10;100.00;96453.25;5075984;28;20192;-59
2022/03/23 00:48:10;;;;;;;9.07;6.43;;;;;;;2.09;100.00;96454.38;5076689;28;20287;-71
2022/03/23 00:50:35;;;;;;;10.70;6.53;;;;;;;2.09;100.00;96446.28;5075897;28;20185;-61
2022/03/23 00:53:01;;;;;;;10.50;6.00;;;;;;;2.05;100.00;96448.06;5076050;28;20192;-71
2022/03/23 00:55:26;;;;;;;10.23;6.50;;;;;;;2.04;100.00;96454.53;5075907;28;20270;-70
2022/03/23 00:57:51;;;;;;;10.40;6.67;;;;;;;2.04;100.00;96441.06;5075646;28;20199;-71
2022/03/23 01:00:22;;;;;;;10.23;6.63;;;;;;;2.03;100.00;96439.50;5076327;28;20291;-71
2022/03/23 01:02:48;;;;;;;12.87;6.67;;;;;;;2.02;100.00;96440.63;5075438;28;20215;-71
2022/03/23 01:05:15;;;;;;;10.00;6.40;;;;;;;2.04;100.00;96440.28;5075870;28;20203;-70
2022/03/23 01:07:42;;;;;;;10.00;6.63;;;;;;;2.04;100.00;96445.69;5075905;28;20200;-56
2022/03/23 01:10:11;;;;;;;10.70;6.83;;;;;;;2.03;100.00;96439.50;5075676;28;20235;-71
2022/03/23 01:12:41;;;;;;;13.33;6.17;;;;;;;2.06;100.00;96443.44;5075616;28;20191;-71
2022/03/23 01:15:08;;;;;;;10.33;6.17;;;;;;;2.01;100.00;96438.25;5076130;28;20205;-71
2022/03/23 01:17:34;;;;;;;13.40;7.10;;;;;;;1.97;100.00;96446.16;5076305;28;20257;-71
2022/03/23 01:19:59;;;;;;;9.40;6.50;;;;;;;1.93;100.00;96445.22;5075373;28;20184;-71
2022/03/23 01:22:24;;;;;;;9.17;6.70;;;;;;;1.86;100.00;96449.53;5075338;28;20189;-71
2022/03/23 01:24:49;;;;;;;10.33;6.73;;;;;;;1.74;100.00;96452.88;5075233;28;20188;-56
2022/03/23 01:27:15;;;;;;;10.10;6.90;;;;;;;1.61;100.00;96443.13;5093303;28;20203;-60
2022/03/23 01:29:40;;;;;;;10.53;6.93;;;;;;;1.55;100.00;96449.78;5078115;28;20189;-71
2022/03/23 01:32:08;;;;;;;10.10;7.03;;;;;;;1.47;100.00;96444.41;5079261;28;20185;-71
2022/03/23 01:34:33;;;;;;;11.37;7.03;;;;;;;1.40;100.00;96447.59;5079347;28;20187;-71
2022/03/23 01:36:59;;;;;;;10.00;6.73;;;;;;;1.35;100.00;96445.03;5079210;28;20184;-71
2022/03/23 01:39:24;;;;;;;9.70;6.73;;;;;;;1.35;100.00;96444.28;5078769;28;20623;-72
2022/03/23 01:41:49;;;;;;;11.37;6.57;;;;;;;1.36;100.00;96446.66;5078734;28;20189;-71
2022/03/23 01:44:22;;;;;;;10.37;7.10;;;;;;;1.39;100.00;96443.31;5078701;28;20191;-56
2022/03/23 01:47:16;;;;;;;14.00;6.73;;;;;;;1.42;100.00;96439.19;5096258;28;20235;-56
2022/03/23 01:49:44;;;;;;;9.13;6.40;;;;;;;1.43;100.00;96441.56;5071160;28;20192;-56
2022/03/23 01:52:13;;;;;;;10.00;6.87;;;;;;;1.43;100.00;96438.88;5079062;28;20188;-56
2022/03/23 01:54:39;;;;;;;11.60;7.53;;;;;;;1.37;100.00;96442.84;5078628;28;20184;-59
2022/03/23 01:57:06;;;;;;;7.97;6.90;;;;;;;1.36;100.00;96441.25;5078827;28;20191;-56
2022/03/23 01:59:33;;;;;;;9.60;7.20;;;;;;;1.35;100.00;96434.28;5078830;28;20220;-55
2022/03/23 02:01:58;;;;;;;10.37;6.40;;;;;;;1.34;100.00;96443.47;5078235;28;20202;-70
2022/03/23 02:04:24;;;;;;;10.57;6.20;;;;;;;1.33;100.00;96438.41;5079151;28;20185;-65
2022/03/23 02:06:49;;;;;;;10.17;6.80;;;;;;;1.31;100.00;96433.34;5078083;28;20663;-66
2022/03/23 02:09:16;;;;;;;11.43;7.07;;;;;;;1.24;100.00;96435.72;5078709;28;20183;-65
2022/03/23 02:11:42;;;;;;;10.37;6.67;;;;;;;1.21;100.00;96441.75;5078011;28;20194;-66
2022/03/23 02:14:09;;;;;;;12.53;6.90;;;;;;;1.23;100.00;96441.41;5078189;28;20306;-66
2022/03/23 02:16:46;;;;;;;9.40;6.43;;;;;;;1.20;100.00;96440.16;5078149;28;20191;-66
2022/03/23 02:19:12;;;;;;;11.93;7.13;;;;;;;1.22;100.00;96434.47;5078735;28;20182;-66
2022/03/23 02:21:42;;;;;;;9.47;6.30;;;;;;;1.24;100.00;96441.09;5078251;28;20192;-55
2022/03/23 02:24:09;;;;;;;11.07;6.77;;;;;;;1.22;100.00;96445.22;5078529;28;20195;-56
2022/03/23 02:26:34;;;;;;;10.50;7.13;;;;;;;1.20;100.00;96432.09;5078121;28;20197;-55
2022/03/23 02:29:01;;;;;;;11.20;7.20;;;;;;;1.20;100.00;96432.09;5078007;28;20234;-56
2022/03/23 02:31:26;;;;;;;8.20;6.20;;;;;;;1.17;100.00;96435.41;5077924;28;20205;-56
2022/03/23 02:33:52;;;;;;;10.80;7.03;;;;;;;1.18;100.00;96438.91;5077578;28;20187;-56
2022/03/23 02:36:17;;;;;;;13.73;8.53;;;;;;;1.14;100.00;96438.75;5078235;28;20223;-56
2022/03/23 02:38:43;;;;;;;11.63;7.63;;;;;;;1.11;100.00;96435.88;5078200;28;20244;-57
2022/03/23 02:41:09;;;;;;;11.13;7.53;;;;;;;1.07;100.00;96435.75;5077455;28;20240;-63
2022/03/23 02:43:34;;;;;;;12.70;8.30;;;;;;;1.08;100.00;96434.63;5077875;28;20234;-66
2022/03/23 02:45:59;;;;;;;12.17;7.67;;;;;;;1.06;100.00;96436.84;5077546;28;20188;-66
2022/03/23 02:48:25;;;;;;;14.77;7.33;;;;;;;1.06;100.00;96436.84;5077774;28;20271;-65
2022/03/23 02:50:50;;;;;;;9.00;6.67;;;;;;;1.08;100.00;96429.25;5077605;28;20199;-66
2022/03/23 03:01:56;;;;;;;9.83;6.87;;;;;;;0.99;100.00;96436.53;5095933;28;20244;-66
2022/03/23 03:04:23;;;;;;;9.40;7.30;;;;;;;0.93;100.00;96432.41;5078240;28;20183;-66
2022/03/23 03:06:49;;;;;;;9.93;6.70;;;;;;;0.94;100.00;96433.22;5077358;28;20211;-66
2022/03/23 03:09:15;;;;;;;9.17;6.83;;;;;;;0.91;100.00;96434.63;5077450;28;20186;-66
2022/03/23 03:11:43;;;;;;;10.37;6.93;;;;;;;0.93;100.00;96437.78;5077193;28;20198;-66
2022/03/23 03:14:08;;;;;;;9.83;7.13;;;;;;;0.94;100.00;96425.16;5077291;28;20554;-66
2022/03/23 03:16:34;;;;;;;10.20;7.20;;;;;;;0.95;100.00;96440.16;5076979;28;20193;-60
2022/03/23 03:18:59;;;;;;;10.77;6.70;;;;;;;0.96;100.00;96441.75;5076835;28;20197;-61
2022/03/23 03:21:24;;;;;;;9.57;6.80;;;;;;;0.96;100.00;96442.53;5077685;28;20252;-61
2022/03/23 03:23:50;;;;;;;9.53;6.93;;;;;;;0.97;100.00;96433.38;5077195;28;20189;-61
2022/03/23 03:26:17;;;;;;;9.13;7.03;;;;;;;0.99;100.00;96430.38;5077404;28;20255;-61
2022/03/23 03:28:43;;;;;;;9.30;7.30;;;;;;;0.98;100.00;96434.94;5077537;28;20190;-61
2022/03/23 03:31:13;;;;;;;10.17;7.00;;;;;;;1.00;100.00;96438.13;5077228;28;20210;-61
2022/03/23 03:33:39;;;;;;;10.77;6.83;;;;;;;0.96;100.00;96436.38;5077397;28;20216;-65
2022/03/23 03:36:05;;;;;;;10.87;6.80;;;;;;;0.93;100.00;96440.50;5077020;28;20190;-60
2022/03/23 03:38:31;;;;;;;10.90;6.87;;;;;;;0.85;100.00;96441.28;5076852;28;20265;-56
2022/03/23 03:40:58;;;;;;;11.57;6.93;;;;;;;0.81;100.00;96440.31;5076807;28;20186;-57
2022/03/23 03:43:24;;;;;;;10.40;7.57;;;;;;;0.78;100.00;96435.56;5077537;28;20190;-56
2022/03/23 03:45:50;;;;;;;11.37;7.83;;;;;;;0.74;100.00;96445.38;5076703;28;20187;-57
2022/03/23 03:48:17;;;;;;;11.20;7.10;;;;;;;0.69;100.00;96442.81;5076829;28;20242;-56
2022/03/23 03:50:43;;;;;;;13.57;7.80;;;;;;;0.68;100.00;96443.94;5077110;28;20193;-57
2022/03/23 03:53:08;;;;;;;11.83;7.50;;;;;;;0.69;100.00;96442.81;5076968;28;20197;-59
2022/03/23 03:55:37;;;;;;;11.77;8.10;;;;;;;0.70;100.00;96440.94;5076525;28;20214;-57
2022/03/23 03:58:03;;;;;;;9.57;6.73;;;;;;;0.67;100.00;96446.94;5076935;28;20215;-56
2022/03/23 04:00:30;;;;;;;8.67;7.23;;;;;;;0.65;100.00;96441.09;5076589;28;20191;-55
2022/03/23 04:02:56;;;;;;;9.03;6.73;;;;;;;0.64;100.00;96440.28;5076499;28;20317;-54
2022/03/23 04:05:21;;;;;;;10.67;6.77;;;;;;;0.64;100.00;96443.00;5076885;28;20204;-56
2022/03/23 04:07:46;;;;;;;10.53;7.10;;;;;;;0.62;100.00;96447.09;5076373;28;20190;-57
2022/03/23 04:10:12;;;;;;;9.40;6.73;;;;;;;0.67;100.00;96447.75;5076651;28;20189;-72
2022/03/23 04:12:38;;;;;;;11.33;6.23;;;;;;;0.67;100.00;96441.56;5076511;28;20235;-56
2022/03/23 04:15:05;;;;;;;10.83;6.87;;;;;;;0.63;100.00;96449.47;5076380;28;20190;-60
2022/03/23 04:17:30;;;;;;;10.13;6.80;;;;;;;0.59;100.00;96453.91;5076719;28;20309;-60
2022/03/23 04:19:55;;;;;;;9.90;7.00;;;;;;;0.56;100.00;96443.78;5076802;28;20208;-60
2022/03/23 04:22:21;;;;;;;10.60;6.57;;;;;;;0.53;100.00;96447.06;5076810;28;20193;-60
2022/03/23 04:24:47;;;;;;;10.30;6.70;;;;;;;0.53;100.00;96455.13;5094026;28;20199;-60
2022/03/23 04:27:12;;;;;;;10.57;6.70;;;;;;;0.55;100.00;96452.13;5076213;28;20307;-59
2022/03/23 04:29:39;;;;;;;13.67;7.63;;;;;;;0.55;100.00;96447.56;5075988;28;20192;-72
2022/03/23 04:32:05;;;;;;;12.50;7.70;;;;;;;0.57;100.00;96450.72;5076160;28;20185;-56
2022/03/23 04:34:30;;;;;;;11.47;6.97;;;;;;;0.55;100.00;96458.31;5076095;28;20202;-56
2022/03/23 04:36:55;;;;;;;12.27;7.37;;;;;;;0.57;100.00;96456.09;5076013;28;20196;-57
2022/03/23 04:39:21;;;;;;;14.73;6.83;;;;;;;0.58;100.00;96456.88;5076340;28;20210;-57
2022/03/23 04:41:46;;;;;;;9.53;6.43;;;;;;;0.54;100.00;96464.78;5075982;28;20189;-56
2022/03/23 04:44:11;;;;;;;11.00;6.53;;;;;;;0.54;100.00;96466.69;5076525;28;20218;-56
2022/03/23 04:46:37;;;;;;;9.30;6.53;;;;;;;0.52;100.00;96464.31;5075957;28;20186;-65
2022/03/23 04:49:06;;;;;;;11.50;7.00;;;;;;;0.49;100.00;96470.31;5076358;28;20178;-56
2022/03/23 04:51:31;;;;;;;13.27;7.97;;;;;;;0.46;100.00;96476.28;5075706;28;20184;-56
2022/03/23 04:53:57;;;;;;;14.57;8.30;;;;;;;0.41;100.00;96473.75;5075719;28;20217;-57
2022/03/23 04:56:22;;;;;;;7.90;6.20;;;;;;;0.38;100.00;96477.06;5075760;28;20188;-55
2022/03/23 04:58:47;;;;;;;13.67;7.47;;;;;;;0.38;100.00;96484.31;5075885;28;20255;-55
2022/03/23 05:01:13;;;;;;;12.03;7.17;;;;;;;0.33;100.00;96479.09;5075642;28;20190;-56
2022/03/23 05:03:38;;;;;;;25.70;13.67;;;;;;;0.31;100.00;96482.09;5076341;28;20216;-56
2022/03/23 05:06:04;;;;;;;14.93;8.23;;;;;;;0.36;100.00;96481.94;5079533;28;20217;-54
2022/03/23 05:08:32;;;;;;;11.27;7.13;;;;;;;0.41;100.00;96487.19;5079146;28;20222;-60
2022/03/23 05:10:57;;;;;;;13.23;7.77;;;;;;;0.45;100.00;96479.28;5079076;28;20188;-61
2022/03/23 05:13:23;;;;;;;9.90;6.77;;;;;;;0.55;100.00;96485.19;5079518;28;20195;-61
2022/03/23 05:15:49;;;;;;;9.67;6.13;;;;;;;0.71;100.00;96478.25;5096900;28;20193;-60
2022/03/23 05:18:14;;;;;;;12.00;7.20;;;;;;;0.97;100.00;96484.44;5079376;28;20285;-64
2022/03/23 05:20:39;;;;;;;9.90;7.13;;;;;;;1.23;100.00;96479.06;5078939;28;20272;-64
2022/03/23 05:23:05;;;;;;;10.57;6.90;;;;;;;1.37;100.00;96483.19;5078854;28;20186;-59
2022/03/23 05:25:30;;;;;;;10.13;6.67;;;;;;;1.54;100.00;96485.88;5079362;28;20199;-55
2022/03/23 05:27:56;;;;;;;12.63;7.00;;;;;;;2.00;100.00;96488.63;5079114;28;20187;-64
2022/03/23 05:30:21;;;;;;;11.00;7.33;;;;;;;2.71;100.00;96503.88;5078908;28;20196;-69
2022/03/23 05:32:46;;;;;;;11.90;7.20;;;;;;;3.40;100.00;96499.56;5078981;28;20192;-63
2022/03/23 05:35:15;;;;;;;13.87;6.93;;;;;;;4.07;100.00;96493.09;5078672;28;20188;-63
2022/03/23 05:37:40;;;;;;;11.67;7.10;;;;;;;4.64;100.00;96497.31;5078668;28;20349;-63
2022/03/23 05:40:07;;;;;;;11.73;7.03;;;;;;;5.11;100.00;96490.31;5078706;28;20208;-65
2022/03/23 05:42:33;;;;;;;8.50;6.53;;;;;;;5.74;100.00;96494.06;5078652;28;20197;-66
2022/03/23 05:44:58;;;;;;;10.37;6.70;;;;;;;6.33;100.00;96497.63;5078573;28;20192;-60
2022/03/23 05:47:23;;;;;;;10.60;7.23;;;;;;;6.64;100.00;96495.72;5078806;28;20214;-60
2022/03/23 05:49:49;;;;;;;11.40;7.40;;;;;;;6.87;96.62;96498.59;5078239;28;20193;-59
2022/03/23 05:52:16;;;;;;;17.23;7.10;;;;;;;7.24;94.28;96499.06;5078882;28;20211;-58
2022/03/23 05:54:41;;;;;;;10.23;7.40;;;;;;;7.27;90.96;96499.16;5078921;28;20206;-59
2022/03/23 05:57:07;;;;;;;13.60;7.20;;;;;;;7.35;90.36;96487.28;5078439;28;20214;-59
2022/03/23 05:59:32;;;;;;;14.50;7.37;;;;;;;7.72;87.22;96506.72;5078437;28;20234;-59
2022/03/23 06:01:58;;;;;;;8.47;7.20;;;;;;;8.19;84.07;96502.59;5034243;28;20206;-62
2022/03/23 06:04:24;;;;;;;10.07;7.17;;;;;;;8.45;80.50;96502.72;5017715;28;20192;-66
2022/03/23 06:06:49;;;;;;;10.30;7.87;;;;;;;8.95;78.94;96494.25;5017851;28;20240;-67
2022/03/23 06:09:15;;;;;;;11.17;7.77;;;;;;;9.57;74.64;96493.59;5017577;28;20291;-67
2022/03/23 06:11:43;;;;;;;11.83;8.00;;;;;;;9.95;72.19;96496.03;5017648;28;20658;-66
2022/03/23 06:14:08;;;;;;;14.33;8.27;;;;;;;10.73;67.45;96499.63;5017479;28;20631;-66
2022/03/23 06:16:33;;;;;;;11.90;8.60;;;;;;;11.20;65.01;96492.22;5033987;28;20210;-67
2022/03/23 06:18:59;;;;;;;12.13;8.13;;;;;;;11.64;62.14;96494.84;5017680;28;20202;-58
2022/03/23 06:21:25;;;;;;;11.20;7.20;;;;;;;12.29;59.03;96499.06;5017784;28;20252;-57
2022/03/23 06:23:50;;;;;;;10.77;7.67;;;;;;;12.72;55.64;96499.94;5017541;28;20281;-62
2022/03/23 06:26:16;;;;;;;10.10;7.50;;;;;;;13.32;52.39;96500.75;5033840;28;20228;-62
2022/03/23 06:28:42;;;;;;;9.00;6.97;;;;;;;13.57;50.90;96504.25;5017592;28;20200;-62
2022/03/23 06:31:07;;;;;;;11.73;7.63;;;;;;;13.65;49.97;96502.31;5017208;28;20190;-62
2022/03/23 06:33:32;;;;;;;9.70;7.67;;;;;;;13.74;49.91;96500.69;5062658;28;20189;-63
2022/03/23 06:35:58;;;;;;;13.00;7.63;;;;;;;14.20;48.28;96501.31;5077662;28;20267;-63
2022/03/23 06:38:23;;;;;;;12.90;7.80;;;;;;;14.76;46.31;96506.56;5077708;28;20200;-65
2022/03/23 06:40:48;;;;;;;10.77;7.63;;;;;;;15.37;44.26;96511.22;5077782;28;20185;-57
2022/03/23 06:43:13;;;;;;;10.80;7.37;;;;;;;15.29;44.51;96512.44;5078239;28;20192;-56
2022/03/23 06:45:40;;;;;;;9.70;7.30;;;;;;;15.20;44.46;96509.38;5077650;28;20281;-54
2022/03/23 06:48:07;;;;;;;10.97;7.97;;;;;;;15.47;43.71;96513.09;5077578;28;20322;-56
2022/03/23 06:50:33;;;;;;;13.67;8.40;;;;;;;16.17;43.42;96509.63;5077372;28;20189;-55
2022/03/23 06:52:58;;;;;;;9.33;7.87;;;;;;;16.69;40.23;96514.91;5077056;28;20191;-55
2022/03/23 06:55:23;;;;;;;14.47;8.20;;;;;;;17.29;39.33;96509.25;5077423;28;20659;-55
2022/03/23 06:57:49;;;;;;;11.87;9.40;;;;;;;17.76;38.07;96505.31;5077787;28;20222;-57
2022/03/23 07:00:14;;;;;;;10.63;9.00;;;;;;;17.63;36.85;96507.91;5077859;28;20219;-65
2022/03/23 07:02:46;;;;;;;12.93;7.87;;;;;;;17.63;37.13;96507.91;5076851;28;20208;-66
2022/03/23 07:05:14;;;;;;;11.00;8.00;;;;;;;17.86;36.39;96505.13;5077145;28;20180;-68
2022/03/23 07:10:25;;;;;;;8.97;8.00;;;;;;;18.61;34.95;96505.25;5095660;28;20234;-69
2022/03/23 07:12:50;;;;;;;9.10;7.97;;;;;;;19.16;33.96;96502.41;5077104;28;20630;-69
2022/03/23 07:15:16;;;;;;;15.23;8.13;;;;;;;19.31;33.76;96506.44;5077025;28;20181;-55
2022/03/23 07:17:41;;;;;;;9.47;8.07;;;;;;;19.75;32.95;96502.94;5076909;28;20208;-59
2022/03/23 07:20:07;;;;;;;10.07;8.20;;;;;;;20.40;31.88;96498.78;5077038;28;20188;-59
2022/03/23 07:22:32;;;;;;;9.70;8.30;;;;;;;20.67;31.22;96507.53;5076972;28;20192;-59
2022/03/23 07:24:58;;;;;;;10.57;9.30;;;;;;;20.86;30.82;96517.66;5077027;28;20196;-58
2022/03/23 07:27:24;;;;;;;9.37;8.47;;;;;;;21.45;29.81;96509.47;5076245;28;20207;-59
2022/03/23 07:29:49;;;;;;;10.40;8.25;;;;;;;21.72;29.37;96517.38;5077382;28;20193;-59
2022/03/23 07:32:14;;;;;;;9.90;8.48;;;;;;;22.12;28.84;96510.81;5077366;28;20234;-64
2022/03/23 07:34:40;;;;;;;13.07;8.20;;;;;;;22.57;28.64;96504.06;5076769;28;20193;-56
2022/03/23 07:37:05;;;;;;;10.05;8.45;;;;;;;22.16;28.79;96508.69;5076871;28;20184;-65
2022/03/23 07:39:31;;;;;;;10.30;8.27;;;;;;;22.33;28.68;96507.25;5077106;28;20582;-65
2022/03/23 07:41:56;;;;;;;10.00;9.00;;;;;;;22.48;28.29;96508.31;5077222;28;20188;-65
2022/03/23 07:44:22;;;;;;;10.25;8.68;;;;;;;23.20;27.43;96507.19;5076947;28;20181;-65
2022/03/23 07:46:48;;;;;;;11.88;9.15;;;;;;;23.77;26.33;96510.03;5076833;28;20185;-65
2022/03/23 07:49:14;;;;;;;12.15;9.70;;;;;;;23.68;26.75;96510.03;5076548;28;20204;-65
2022/03/23 07:51:40;;;;;;;11.50;9.23;;;;;;;23.85;26.46;96513.31;5076914;28;20230;-66
2022/03/23 07:54:06;;;;;;;10.50;9.50;;;;;;;24.05;26.10;96510.88;5077020;28;20184;-58
2022/03/23 07:56:32;;;;;;;10.30;9.20;;;;;;;24.10;25.37;96507.47;5077089;28;20189;-58
2022/03/23 07:58:58;;;;;;;11.52;10.02;;;;;;;24.19;25.49;96515.84;5076427;28;20196;-59
2022/03/23 08:01:24;;;;;;;13.30;10.48;;;;;;;23.87;26.14;96522.78;5076486;28;20184;-58
2022/03/23 08:03:49;;;;;;;12.20;10.02;;;;;;;25.24;24.26;96511.06;5076145;28;20204;-58
2022/03/23 08:06:14;;;;;;;13.38;10.25;;;;;;;25.24;24.26;96511.06;5076487;28;20266;-58
2022/03/23 08:08:40;;;;;;;11.15;10.05;;;;;;;25.25;23.27;96523.81;5076372;28;20200;-63
2022/03/23 08:11:05;;;;;;;11.20;10.05;;;;;;;25.67;23.38;96524.56;5076839;28;20206;-57
2022/03/23 08:13:30;;;;;;;12.60;10.73;;;;;;;26.00;23.97;96516.94;5076475;28;20558;-58
2022/03/23 08:15:56;;;;;;;11.38;10.15;;;;;;;26.06;23.23;96526.25;5075969;28;20600;-58
2022/03/23 08:18:21;;;;;;;11.18;9.50;;;;;;;26.53;22.43;96523.38;5076069;28;20184;-57
2022/03/23 08:20:49;;;;;;;10.88;9.75;;;;;;;25.80;23.14;96527.94;5076076;28;20180;-58
2022/03/23 08:23:15;;;;;;;13.13;10.38;;;;;;;26.25;21.97;96524.09;5076198;28;20188;-57
2022/03/23 08:25:42;;;;;;;12.45;10.57;;;;;;;25.74;22.79;96527.03;5075997;28;20194;-58
2022/03/23 08:28:09;;;;;;;12.10;10.73;;;;;;;25.95;22.57;96525.19;5075881;28;20279;-65
2022/03/23 08:30:35;;;;;;;11.75;10.55;;;;;;;26.31;22.78;96524.97;5076495;28;20180;-54
2022/03/23 08:33:02;;;;;;;12.85;10.27;;;;;;;26.57;22.05;96526.00;5076084;28;20184;-54
2022/03/23 08:35:28;;;;;;;13.02;11.60;;;;;;;25.79;22.00;96529.19;5076429;28;20183;-55
2022/03/23 08:37:53;;;;;;;12.60;11.30;;;;;;;26.18;21.95;96530.06;5075234;28;20177;-55
2022/03/23 08:40:19;;;;;;;12.00;10.80;;;;;;;26.20;21.99;96533.13;5075583;28;20188;-54
2022/03/23 08:42:45;;;;;;;12.35;11.07;;;;;;;26.44;21.59;96525.50;5076272;28;20234;-55
2022/03/23 08:45:11;;;;;;;12.88;11.65;;;;;;;26.14;21.75;96532.28;5075973;28;20187;-53
2022/03/23 08:47:38;;;;;;;11.88;10.63;;;;;;;26.03;21.50;96541.19;5076343;28;20279;-64
2022/03/23 08:50:07;;;;;;;15.43;12.30;;;;;;;26.30;21.29;96535.41;5075739;28;20526;-58
2022/03/23 08:52:34;;;;;;;11.85;10.85;;;;;;;27.01;20.91;96530.44;5076309;28;20188;-58
2022/03/23 08:55:00;;;;;;;12.48;11.38;;;;;;;26.85;20.02;96530.91;5076340;28;20199;-58
2022/03/23 08:57:25;;;;;;;12.35;11.23;;;;;;;26.00;21.15;96533.72;5075705;28;20188;-58
2022/03/23 08:59:50;;;;;;;12.30;10.80;;;;;;;26.24;21.12;96528.91;5075781;28;20191;-57
2022/03/23 09:02:16;;;;;;;12.88;11.55;;;;;;;25.64;21.91;96519.94;5075853;28;20288;-58
2022/03/23 09:04:41;;;;;;;12.52;11.38;;;;;;;25.67;21.72;96518.97;5075987;28;20292;-63
2022/03/23 09:07:06;;;;;;;13.30;11.40;;;;;;;26.05;21.26;96526.72;5075515;28;20629;-61
2022/03/23 09:09:32;;;;;;;13.73;12.02;;;;;;;26.21;21.36;96531.88;5075605;28;20191;-62
2022/03/23 09:11:57;;;;;;;14.23;12.50;;;;;;;26.71;21.00;96526.06;5075657;28;20177;-62
2022/03/23 09:14:22;;;;;;;12.90;11.60;;;;;;;26.45;21.40;96525.03;5075503;28;20191;-62
2022/03/23 09:16:48;;;;;;;13.60;12.18;;;;;;;25.83;21.49;96529.78;5075248;28;20183;-62
2022/03/23 09:19:19;;;;;;;18.13;12.30;;;;;;;25.30;22.01;96528.78;5075551;28;20177;-62
2022/03/23 09:21:45;;;;;;;13.25;11.55;;;;;;;25.35;22.03;96533.75;5075803;28;20180;-60
2022/03/23 09:24:11;;;;;;;17.33;12.38;;;;;;;25.96;21.69;96535.19;5075474;28;20185;-55
2022/03/23 09:26:36;;;;;;;13.85;12.30;;;;;;;25.77;21.90;96526.06;5093236;28;20173;-58
2022/03/23 09:29:01;;;;;;;14.55;12.13;;;;;;;25.77;21.93;96520.47;5075046;28;20570;-58
2022/03/23 09:31:27;;;;;;;15.48;13.82;;;;;;;25.66;21.56;96525.81;5075546;28;20267;-59
2022/03/23 09:33:54;;;;;;;15.27;12.50;;;;;;;25.34;21.56;96529.38;5075557;28;20310;-58
2022/03/23 09:39:03;;;;;;;14.55;12.43;;;;;;;25.75;25.06;96525.78;5093780;28;20331;-58
2022/03/23 09:41:32;;;;;;;13.98;12.65;;;;;;;26.27;20.96;96525.16;5075065;28;20311;-61
2022/03/23 09:43:58;;;;;;;14.93;11.93;;;;;;;25.25;22.41;96529.41;5075530;28;20283;-55
2022/03/23 09:46:24;;;;;;;15.10;13.23;;;;;;;24.90;22.58;96517.84;5075200;28;20281;-55
2022/03/23 09:48:49;;;;;;;14.65;12.57;;;;;;;25.60;21.77;96516.50;5075505;28;20288;-54
2022/03/23 09:51:16;;;;;;;16.90;12.75;;;;;;;25.55;22.23;96514.38;5078256;28;20408;-55
2022/03/23 09:53:42;;;;;;;15.32;12.38;;;;;;;26.35;22.27;96503.91;5078698;28;20188;-56
2022/03/23 09:56:08;;;;;;;15.40;12.50;;;;;;;25.69;22.07;96508.09;5078452;28;20558;-54
2022/03/23 09:58:33;;;;;;;13.77;12.30;;;;;;;25.83;21.89;96512.97;5078586;28;20360;-56
2022/03/23 10:00:59;;;;;;;16.10;13.38;;;;;;;26.39;20.92;96506.53;5095611;28;20299;-56
2022/03/23 10:03:54;;;;;;;16.65;13.05;;;;;;;25.84;21.44;96502.53;5078375;28;20239;-58
2022/03/23 10:06:57;;;;;;;14.90;13.30;;;;;;;25.81;21.83;96504.28;5078852;28;20187;-59
2022/03/23 10:09:25;;;;;;;18.90;15.10;;;;;;;26.40;21.67;96511.66;5078227;28;20232;-59
2022/03/23 10:12:41;;;;;;;14.43;13.05;;;;;;;26.67;21.00;96503.03;5078201;28;20185;-58
2022/03/23 10:16:00;;;;;;;16.27;14.57;;;;;;;26.52;20.73;96505.03;5077962;28;20275;-57
2022/03/23 10:18:47;;;;;;;17.42;15.63;;;;;;;25.58;22.27;96496.63;5078308;28;20337;-55
2022/03/23 10:21:14;;;;;;;16.02;14.43;;;;;;;25.38;22.26;96499.22;5078467;28;20618;-59
2022/03/23 10:23:49;;;;;;;15.48;13.77;;;;;;;25.17;22.54;96505.81;5078348;28;20610;-61
2022/03/23 10:26:14;;;;;;;15.85;14.25;;;;;;;25.52;21.92;96497.78;5078297;28;20180;-58
2022/03/23 10:28:40;;;;;;;18.35;14.55;;;;;;;25.28;22.15;96506.06;5077843;28;20212;-59
2022/03/23 10:31:17;;;;;;;14.85;13.48;;;;;;;25.81;21.51;96493.06;5077913;28;20179;-58
2022/03/23 10:33:43;;;;;;;18.98;16.05;;;;;;;26.14;21.60;96493.81;5095686;28;20273;-59
2022/03/23 10:36:08;;;;;;;16.60;12.57;;;;;;;26.52;21.14;96496.63;5077800;28;20177;-58
2022/03/23 10:38:39;;;;;;;16.52;14.50;;;;;;;26.43;21.06;96493.88;5077699;28;20188;-65
2022/03/23 10:41:10;;;;;;;15.23;13.73;;;;;;;26.60;21.32;96486.59;5077829;28;20204;-55
2022/03/23 10:43:37;;;;;;;16.27;14.43;;;;;;;28.14;20.29;96483.47;5077762;28;20188;-57
2022/03/23 10:46:13;;;;;;;15.32;13.88;;;;;;;28.42;19.23;96474.56;5095449;28;20597;-56
2022/03/23 10:48:58;;;;;;;17.13;14.13;;;;;;;26.95;20.63;96472.69;5078019;28;20212;-56
2022/03/23 10:51:36;;;;;;;15.57;13.80;;;;;;;26.81;20.63;96477.03;5077633;28;20177;-56
2022/03/23 10:54:19;;;;;;;16.15;14.55;;;;;;;27.24;20.65;96473.44;5077279;28;20184;-63
2022/03/23 10:56:45;;;;;;;18.17;13.90;;;;;;;27.70;20.47;96468.78;5077679;28;20641;-67
2022/03/23 10:59:22;;;;;;;16.70;14.50;;;;;;;26.19;20.63;96476.34;5077691;28;20192;-56
2022/03/23 11:02:03;;;;;;;17.73;15.20;;;;;;;26.70;21.13;96468.41;5076989;28;20263;-60
2022/03/23 11:04:30;;;;;;;14.88;13.27;;;;;;;26.98;20.66;96463.31;5077780;28;20704;-57
2022/03/23 11:06:58;;;;;;;16.98;13.77;;;;;;;27.15;20.74;96465.13;5077509;28;20242;-56
2022/03/23 11:18:12;;;;;;;16.40;14.48;;;;;;;26.44;21.20;96447.03;5095641;28;20204;-68
2022/03/23 11:20:56;;;;;;;15.43;13.98;;;;;;;26.35;20.41;96459.09;5077569;28;20169;-67
2022/03/23 11:23:23;;;;;;;15.55;14.00;;;;;;;25.95;20.93;96453.19;5077097;28;20241;-67
2022/03/23 11:26:04;;;;;;;14.15;12.70;;;;;;;25.51;20.40;96446.59;5077550;28;20704;-69
2022/03/23 11:28:33;;;;;;;15.30;13.63;;;;;;;25.28;20.65;96445.28;5076709;28;20295;-67
2022/03/23 11:31:02;;;;;;;14.32;12.93;;;;;;;24.03;22.00;96449.13;5077417;28;20267;-62
2022/03/23 11:33:29;;;;;;;15.63;14.07;;;;;;;23.18;22.82;96442.75;5077406;28;20181;-55
2022/03/23 11:35:54;;;;;;;16.30;14.57;;;;;;;22.61;23.60;96443.44;5076619;28;20180;-55
2022/03/23 11:38:26;;;;;;;15.80;14.30;;;;;;;21.53;24.42;96454.44;5076860;28;20196;-56
2022/03/23 11:40:52;;;;;;;15.07;13.55;;;;;;;21.04;24.41;96442.94;5077272;28;20177;-57
2022/03/23 11:43:20;;;;;;;15.57;14.07;;;;;;;20.13;25.33;96447.66;5077428;28;20216;-57
2022/03/23 11:45:47;;;;;;;15.13;13.52;;;;;;;19.98;26.26;96444.47;5076809;28;20192;-55
2022/03/23 11:48:18;;;;;;;14.43;12.90;;;;;;;19.55;26.17;96449.59;5077046;28;20258;-56